sensor_id;sensor_type;location;lat;lon;timestamp;temperature;humidity
67279;DHT22;54193;53.746;10.058;2024-02-26T00:00:55;3.18;91.47
67279;DHT22;54193;53.746;10.058;2024-02-26T00:03:21;3.24;91.22
67279;DHT22;54193;53.746;10.058;2024-02-26T00:05:46;3.14;91.96
67279;DHT22;54193;53.746;10.058;2024-02-26T00:08:11;3.41;91.18
67279;DHT22;54193;53.746;10.058;2024-02-26T00:10:36;3.17;90.53
67279;DHT22;54193;53.746;10.058;2024-02-26T00:13:01;2.94;90.66
67279;DHT22;54193;53.746;10.058;2024-02-26T00:15:27;2.86;90.65
67279;DHT22;54193;53.746;10.058;2024-02-26T00:17:52;2.84;90.90
67279;DHT22;54193;53.746;10.058;2024-02-26T00:20:18;2.84;90.92
67279;DHT22;54193;53.746;10.058;2024-02-26T00:22:43;2.79;90.74
67279;DHT22;54193;53.746;10.058;2024-02-26T00:25:08;2.72;90.59
67279;DHT22;54193;53.746;10.058;2024-02-26T00:27:33;2.71;90.80
67279;DHT22;54193;53.746;10.058;2024-02-26T00:29:59;2.75;91.11
67279;DHT22;54193;53.746;10.058;2024-02-26T00:32:24;2.90;90.77
67279;DHT22;54193;53.746;10.058;2024-02-26T00:34:49;2.77;90.81
67279;DHT22;54193;53.746;10.058;2024-02-26T00:37:15;2.73;90.71
67279;DHT22;54193;53.746;10.058;2024-02-26T00:39:40;2.77;90.65
67279;DHT22;54193;53.746;10.058;2024-02-26T00:42:06;2.69;91.09
67279;DHT22;54193;53.746;10.058;2024-02-26T00:44:31;2.56;91.52
67279;DHT22;54193;53.746;10.058;2024-02-26T00:47:06;2.62;91.58
67279;DHT22;54193;53.746;10.058;2024-02-26T00:49:31;2.76;91.66
67279;DHT22;54193;53.746;10.058;2024-02-26T00:51:56;2.73;91.31
67279;DHT22;54193;53.746;10.058;2024-02-26T00:54:21;2.66;91.45
67279;DHT22;54193;53.746;10.058;2024-02-26T00:56:47;2.66;91.45
67279;DHT22;54193;53.746;10.058;2024-02-26T00:59:12;2.63;91.29
67279;DHT22;54193;53.746;10.058;2024-02-26T01:01:37;2.42;91.14
67279;DHT22;54193;53.746;10.058;2024-02-26T01:04:02;2.31;90.95
67279;DHT22;54193;53.746;10.058;2024-02-26T01:06:28;2.25;90.89
67279;DHT22;54193;53.746;10.058;2024-02-26T01:08:53;2.27;91.53
67279;DHT22;54193;53.746;10.058;2024-02-26T01:11:18;2.39;91.53
67279;DHT22;54193;53.746;10.058;2024-02-26T01:13:44;2.39;91.39
67279;DHT22;54193;53.746;10.058;2024-02-26T01:16:09;2.32;91.20
67279;DHT22;54193;53.746;10.058;2024-02-26T01:18:35;2.07;91.64
67279;DHT22;54193;53.746;10.058;2024-02-26T01:21:01;1.91;91.70
67279;DHT22;54193;53.746;10.058;2024-02-26T01:23:26;1.87;92.39
67279;DHT22;54193;53.746;10.058;2024-02-26T01:25:51;1.87;91.74
67279;DHT22;54193;53.746;10.058;2024-02-26T01:28:16;1.93;91.43
67279;DHT22;54193;53.746;10.058;2024-02-26T01:30:42;1.96;91.37
67279;DHT22;54193;53.746;10.058;2024-02-26T01:33:07;1.86;91.94
67279;DHT22;54193;53.746;10.058;2024-02-26T01:35:32;1.99;92.14
67279;DHT22;54193;53.746;10.058;2024-02-26T01:37:57;2.04;92.40
67279;DHT22;54193;53.746;10.058;2024-02-26T01:40:26;1.90;92.41
67279;DHT22;54193;53.746;10.058;2024-02-26T01:42:52;1.83;92.46
67279;DHT22;54193;53.746;10.058;2024-02-26T01:45:17;1.73;92.46
67279;DHT22;54193;53.746;10.058;2024-02-26T01:47:51;1.69;92.37
67279;DHT22;54193;53.746;10.058;2024-02-26T01:50:17;1.72;92.10
67279;DHT22;54193;53.746;10.058;2024-02-26T01:52:43;1.41;92.23
67279;DHT22;54193;53.746;10.058;2024-02-26T01:55:09;1.30;92.64
67279;DHT22;54193;53.746;10.058;2024-02-26T01:57:34;1.31;92.76
67279;DHT22;54193;53.746;10.058;2024-02-26T02:00:00;1.28;92.71
67279;DHT22;54193;53.746;10.058;2024-02-26T02:02:25;1.24;92.95
67279;DHT22;54193;53.746;10.058;2024-02-26T02:04:50;1.23;93.44
67279;DHT22;54193;53.746;10.058;2024-02-26T02:07:16;1.15;93.39
67279;DHT22;54193;53.746;10.058;2024-02-26T02:09:41;0.94;93.23
67279;DHT22;54193;53.746;10.058;2024-02-26T02:12:06;0.72;93.47
67279;DHT22;54193;53.746;10.058;2024-02-26T02:14:32;0.81;93.74
67279;DHT22;54193;53.746;10.058;2024-02-26T02:16:57;0.88;93.43
67279;DHT22;54193;53.746;10.058;2024-02-26T02:19:22;0.94;93.21
67279;DHT22;54193;53.746;10.058;2024-02-26T02:21:48;0.94;93.07
67279;DHT22;54193;53.746;10.058;2024-02-26T02:24:13;0.93;93.28
67279;DHT22;54193;53.746;10.058;2024-02-26T02:26:38;0.97;93.59
67279;DHT22;54193;53.746;10.058;2024-02-26T02:29:03;0.91;93.41
67279;DHT22;54193;53.746;10.058;2024-02-26T02:31:29;0.77;93.37
67279;DHT22;54193;53.746;10.058;2024-02-26T02:33:54;0.76;93.48
67279;DHT22;54193;53.746;10.058;2024-02-26T02:36:19;0.70;93.52
67279;DHT22;54193;53.746;10.058;2024-02-26T02:38:48;0.77;93.25
67279;DHT22;54193;53.746;10.058;2024-02-26T02:41:15;0.80;93.17
67279;DHT22;54193;53.746;10.058;2024-02-26T02:43:40;0.81;93.11
67279;DHT22;54193;53.746;10.058;2024-02-26T02:46:05;0.84;93.04
67279;DHT22;54193;53.746;10.058;2024-02-26T02:48:30;0.87;93.08
67279;DHT22;54193;53.746;10.058;2024-02-26T02:50:56;0.93;93.09
67279;DHT22;54193;53.746;10.058;2024-02-26T02:53:21;0.88;93.03
67279;DHT22;54193;53.746;10.058;2024-02-26T02:55:46;0.83;93.04
67279;DHT22;54193;53.746;10.058;2024-02-26T02:58:11;0.76;92.96
67279;DHT22;54193;53.746;10.058;2024-02-26T03:00:36;0.76;93.14
67279;DHT22;54193;53.746;10.058;2024-02-26T03:03:02;0.77;92.98
67279;DHT22;54193;53.746;10.058;2024-02-26T03:05:27;0.77;92.93
67279;DHT22;54193;53.746;10.058;2024-02-26T03:07:52;0.75;93.03
67279;DHT22;54193;53.746;10.058;2024-02-26T03:10:17;0.77;93.08
67279;DHT22;54193;53.746;10.058;2024-02-26T03:12:43;0.80;93.24
67279;DHT22;54193;53.746;10.058;2024-02-26T03:15:08;0.75;93.28
67279;DHT22;54193;53.746;10.058;2024-02-26T03:17:33;0.73;93.18
67279;DHT22;54193;53.746;10.058;2024-02-26T03:19:59;0.66;93.12
67279;DHT22;54193;53.746;10.058;2024-02-26T03:22:24;0.70;93.08
67279;DHT22;54193;53.746;10.058;2024-02-26T03:24:49;0.62;93.17
67279;DHT22;54193;53.746;10.058;2024-02-26T03:27:14;0.62;93.51
67279;DHT22;54193;53.746;10.058;2024-02-26T03:29:40;0.58;93.68
67279;DHT22;54193;53.746;10.058;2024-02-26T03:32:05;0.53;93.84
67279;DHT22;54193;53.746;10.058;2024-02-26T03:34:31;0.59;93.99
67279;DHT22;54193;53.746;10.058;2024-02-26T03:36:56;0.59;93.80
67279;DHT22;54193;53.746;10.058;2024-02-26T03:39:22;0.50;93.52
67279;DHT22;54193;53.746;10.058;2024-02-26T03:41:47;0.48;93.61
67279;DHT22;54193;53.746;10.058;2024-02-26T03:44:12;0.50;93.78
67279;DHT22;54193;53.746;10.058;2024-02-26T03:46:37;0.53;93.56
67279;DHT22;54193;53.746;10.058;2024-02-26T03:49:03;0.53;93.48
67279;DHT22;54193;53.746;10.058;2024-02-26T03:51:28;0.55;93.55
67279;DHT22;54193;53.746;10.058;2024-02-26T03:53:56;0.56;93.60
67279;DHT22;54193;53.746;10.058;2024-02-26T03:56:22;0.59;93.76
67279;DHT22;54193;53.746;10.058;2024-02-26T03:58:48;0.60;93.78
67279;DHT22;54193;53.746;10.058;2024-02-26T04:01:13;0.60;93.85
67279;DHT22;54193;53.746;10.058;2024-02-26T04:03:38;0.66;93.83
67279;DHT22;54193;53.746;10.058;2024-02-26T04:06:03;0.63;93.84
67279;DHT22;54193;53.746;10.058;2024-02-26T04:08:29;0.65;93.82
67279;DHT22;54193;53.746;10.058;2024-02-26T04:10:54;0.65;93.96
67279;DHT22;54193;53.746;10.058;2024-02-26T04:13:19;0.70;93.94
67279;DHT22;54193;53.746;10.058;2024-02-26T04:15:45;0.73;93.90
67279;DHT22;54193;53.746;10.058;2024-02-26T04:18:11;0.76;93.79
67279;DHT22;54193;53.746;10.058;2024-02-26T04:20:36;0.68;93.80
67279;DHT22;54193;53.746;10.058;2024-02-26T04:23:02;0.65;94.09
67279;DHT22;54193;53.746;10.058;2024-02-26T04:25:27;0.63;94.05
67279;DHT22;54193;53.746;10.058;2024-02-26T04:27:53;0.55;94.08
67279;DHT22;54193;53.746;10.058;2024-02-26T04:30:19;0.55;94.35
67279;DHT22;54193;53.746;10.058;2024-02-26T04:32:44;0.50;94.15
67279;DHT22;54193;53.746;10.058;2024-02-26T04:35:10;0.33;93.97
67279;DHT22;54193;53.746;10.058;2024-02-26T04:37:35;0.37;94.19
67279;DHT22;54193;53.746;10.058;2024-02-26T04:40:00;0.32;94.01
67279;DHT22;54193;53.746;10.058;2024-02-26T04:42:26;0.33;93.79
67279;DHT22;54193;53.746;10.058;2024-02-26T04:44:52;0.32;93.74
67279;DHT22;54193;53.746;10.058;2024-02-26T04:47:17;0.25;93.67
67279;DHT22;54193;53.746;10.058;2024-02-26T04:49:42;0.29;93.58
67279;DHT22;54193;53.746;10.058;2024-02-26T04:52:07;0.31;93.57
67279;DHT22;54193;53.746;10.058;2024-02-26T04:54:33;0.39;93.80
67279;DHT22;54193;53.746;10.058;2024-02-26T04:56:58;0.48;93.78
67279;DHT22;54193;53.746;10.058;2024-02-26T04:59:23;0.52;93.55
67279;DHT22;54193;53.746;10.058;2024-02-26T05:01:49;0.55;94.02
67279;DHT22;54193;53.746;10.058;2024-02-26T05:04:16;0.55;93.96
67279;DHT22;54193;53.746;10.058;2024-02-26T05:06:41;0.58;93.80
67279;DHT22;54193;53.746;10.058;2024-02-26T05:09:06;0.52;93.91
67279;DHT22;54193;53.746;10.058;2024-02-26T05:11:31;0.49;94.12
67279;DHT22;54193;53.746;10.058;2024-02-26T05:13:57;0.37;94.12
67279;DHT22;54193;53.746;10.058;2024-02-26T05:16:22;0.31;93.99
67279;DHT22;54193;53.746;10.058;2024-02-26T05:18:49;0.22;94.22
67279;DHT22;54193;53.746;10.058;2024-02-26T05:21:15;0.22;94.25
67279;DHT22;54193;53.746;10.058;2024-02-26T05:23:40;0.31;94.35
67279;DHT22;54193;53.746;10.058;2024-02-26T05:26:05;0.38;94.30
67279;DHT22;54193;53.746;10.058;2024-02-26T05:28:30;0.28;94.41
67279;DHT22;54193;53.746;10.058;2024-02-26T05:30:56;0.18;94.44
67279;DHT22;54193;53.746;10.058;2024-02-26T05:33:21;0.35;94.56
67279;DHT22;54193;53.746;10.058;2024-02-26T05:35:47;0.55;94.34
67279;DHT22;54193;53.746;10.058;2024-02-26T05:38:12;0.68;94.36
67279;DHT22;54193;53.746;10.058;2024-02-26T05:40:37;0.79;94.38
67279;DHT22;54193;53.746;10.058;2024-02-26T05:43:03;0.91;94.40
67279;DHT22;54193;53.746;10.058;2024-02-26T05:45:28;1.03;94.27
67279;DHT22;54193;53.746;10.058;2024-02-26T05:47:53;0.88;94.47
67279;DHT22;54193;53.746;10.058;2024-02-26T05:50:19;0.84;94.25
67279;DHT22;54193;53.746;10.058;2024-02-26T05:52:44;0.84;94.58
67279;DHT22;54193;53.746;10.058;2024-02-26T05:55:09;0.84;94.34
67279;DHT22;54193;53.746;10.058;2024-02-26T05:57:34;0.73;94.43
67279;DHT22;54193;53.746;10.058;2024-02-26T06:00:00;0.83;94.66
67279;DHT22;54193;53.746;10.058;2024-02-26T06:02:29;0.81;94.52
67279;DHT22;54193;53.746;10.058;2024-02-26T06:04:54;0.86;94.71
67279;DHT22;54193;53.746;10.058;2024-02-26T06:07:19;0.97;94.79
67279;DHT22;54193;53.746;10.058;2024-02-26T06:09:44;1.04;94.65
67279;DHT22;54193;53.746;10.058;2024-02-26T06:12:10;1.05;94.59
67279;DHT22;54193;53.746;10.058;2024-02-26T06:14:35;1.13;94.64
67279;DHT22;54193;53.746;10.058;2024-02-26T06:17:01;1.15;94.46
67279;DHT22;54193;53.746;10.058;2024-02-26T06:19:26;1.03;94.56
67279;DHT22;54193;53.746;10.058;2024-02-26T06:21:51;1.04;94.72
67279;DHT22;54193;53.746;10.058;2024-02-26T06:24:16;1.05;94.69
67279;DHT22;54193;53.746;10.058;2024-02-26T06:26:42;1.08;94.73
67279;DHT22;54193;53.746;10.058;2024-02-26T06:29:07;1.23;94.68
67279;DHT22;54193;53.746;10.058;2024-02-26T06:31:32;1.17;94.77
67279;DHT22;54193;53.746;10.058;2024-02-26T06:33:57;1.17;94.68
67279;DHT22;54193;53.746;10.058;2024-02-26T06:36:22;1.20;94.66
67279;DHT22;54193;53.746;10.058;2024-02-26T06:38:48;1.25;94.70
67279;DHT22;54193;53.746;10.058;2024-02-26T06:41:14;1.24;94.42
67279;DHT22;54193;53.746;10.058;2024-02-26T06:43:39;1.30;94.90
67279;DHT22;54193;53.746;10.058;2024-02-26T06:46:05;1.30;94.69
67279;DHT22;54193;53.746;10.058;2024-02-26T06:48:30;1.34;94.81
67279;DHT22;54193;53.746;10.058;2024-02-26T06:50:55;1.39;94.72
67279;DHT22;54193;53.746;10.058;2024-02-26T06:53:21;1.36;94.80
67279;DHT22;54193;53.746;10.058;2024-02-26T06:55:46;1.41;94.99
67279;DHT22;54193;53.746;10.058;2024-02-26T06:58:11;1.38;94.93
67279;DHT22;54193;53.746;10.058;2024-02-26T07:00:37;1.35;94.84
67279;DHT22;54193;53.746;10.058;2024-02-26T07:03:02;1.42;94.89
67279;DHT22;54193;53.746;10.058;2024-02-26T07:05:28;1.46;94.87
67279;DHT22;54193;53.746;10.058;2024-02-26T07:07:54;1.55;94.83
67279;DHT22;54193;53.746;10.058;2024-02-26T07:10:19;1.52;94.99
67279;DHT22;54193;53.746;10.058;2024-02-26T07:12:44;1.52;94.75
67279;DHT22;54193;53.746;10.058;2024-02-26T07:15:10;1.53;94.82
67279;DHT22;54193;53.746;10.058;2024-02-26T07:17:35;1.52;94.77
67279;DHT22;54193;53.746;10.058;2024-02-26T07:20:01;1.55;94.82
67279;DHT22;54193;53.746;10.058;2024-02-26T07:22:29;1.52;94.83
67279;DHT22;54193;53.746;10.058;2024-02-26T07:24:54;1.63;94.90
67279;DHT22;54193;53.746;10.058;2024-02-26T07:27:20;1.64;94.81
67279;DHT22;54193;53.746;10.058;2024-02-26T07:29:46;1.66;94.87
67279;DHT22;54193;53.746;10.058;2024-02-26T07:32:11;1.67;94.86
67279;DHT22;54193;53.746;10.058;2024-02-26T07:34:36;1.66;94.74
67279;DHT22;54193;53.746;10.058;2024-02-26T07:37:04;1.66;94.70
67279;DHT22;54193;53.746;10.058;2024-02-26T07:39:29;1.73;95.12
67279;DHT22;54193;53.746;10.058;2024-02-26T07:41:54;1.81;94.92
67279;DHT22;54193;53.746;10.058;2024-02-26T07:44:19;1.94;94.86
67279;DHT22;54193;53.746;10.058;2024-02-26T07:46:45;1.93;94.77
67279;DHT22;54193;53.746;10.058;2024-02-26T07:49:10;1.96;94.72
67279;DHT22;54193;53.746;10.058;2024-02-26T07:51:35;1.73;94.23
67279;DHT22;54193;53.746;10.058;2024-02-26T07:54:00;1.89;94.97
67279;DHT22;54193;53.746;10.058;2024-02-26T07:56:26;1.93;94.81
67279;DHT22;54193;53.746;10.058;2024-02-26T07:58:51;1.93;94.56
67279;DHT22;54193;53.746;10.058;2024-02-26T08:01:16;1.97;94.67
67279;DHT22;54193;53.746;10.058;2024-02-26T08:03:42;2.11;94.69
67279;DHT22;54193;53.746;10.058;2024-02-26T08:06:07;2.14;94.76
67279;DHT22;54193;53.746;10.058;2024-02-26T08:08:33;2.22;94.54
67279;DHT22;54193;53.746;10.058;2024-02-26T08:10:59;2.22;94.77
67279;DHT22;54193;53.746;10.058;2024-02-26T08:13:24;2.32;94.81
67279;DHT22;54193;53.746;10.058;2024-02-26T08:15:49;2.38;94.68
67279;DHT22;54193;53.746;10.058;2024-02-26T08:18:15;2.38;94.35
67279;DHT22;54193;53.746;10.058;2024-02-26T08:20:41;2.55;94.68
67279;DHT22;54193;53.746;10.058;2024-02-26T08:23:06;2.63;94.58
67279;DHT22;54193;53.746;10.058;2024-02-26T08:25:31;2.60;94.55
67279;DHT22;54193;53.746;10.058;2024-02-26T08:27:56;2.59;94.47
67279;DHT22;54193;53.746;10.058;2024-02-26T08:30:21;2.45;94.38
67279;DHT22;54193;53.746;10.058;2024-02-26T08:32:47;2.27;94.45
67279;DHT22;54193;53.746;10.058;2024-02-26T08:35:12;2.46;94.77
67279;DHT22;54193;53.746;10.058;2024-02-26T08:37:38;2.52;94.44
67279;DHT22;54193;53.746;10.058;2024-02-26T08:40:03;2.46;94.38
67279;DHT22;54193;53.746;10.058;2024-02-26T08:42:29;2.39;94.84
67279;DHT22;54193;53.746;10.058;2024-02-26T08:44:54;2.67;94.86
67279;DHT22;54193;53.746;10.058;2024-02-26T08:47:19;2.63;94.49
67279;DHT22;54193;53.746;10.058;2024-02-26T08:49:45;2.76;94.56
67279;DHT22;54193;53.746;10.058;2024-02-26T08:52:10;3.04;94.55
67279;DHT22;54193;53.746;10.058;2024-02-26T08:54:35;3.01;94.39
67279;DHT22;54193;53.746;10.058;2024-02-26T08:57:00;3.11;94.43
67279;DHT22;54193;53.746;10.058;2024-02-26T08:59:26;3.31;94.09
67279;DHT22;54193;53.746;10.058;2024-02-26T09:01:51;3.38;93.94
67279;DHT22;54193;53.746;10.058;2024-02-26T09:04:16;3.42;94.00
67279;DHT22;54193;53.746;10.058;2024-02-26T09:06:41;3.38;93.85
67279;DHT22;54193;53.746;10.058;2024-02-26T09:09:07;3.45;94.11
67279;DHT22;54193;53.746;10.058;2024-02-26T09:11:32;3.45;94.07
67279;DHT22;54193;53.746;10.058;2024-02-26T09:13:57;3.59;93.86
67279;DHT22;54193;53.746;10.058;2024-02-26T09:16:23;3.68;93.96
67279;DHT22;54193;53.746;10.058;2024-02-26T09:18:49;3.65;94.03
67279;DHT22;54193;53.746;10.058;2024-02-26T09:21:14;3.91;94.07
67279;DHT22;54193;53.746;10.058;2024-02-26T09:23:53;3.91;93.66
67279;DHT22;54193;53.746;10.058;2024-02-26T09:26:19;4.03;93.58
67279;DHT22;54193;53.746;10.058;2024-02-26T09:28:44;4.06;93.55
67279;DHT22;54193;53.746;10.058;2024-02-26T09:31:09;3.87;93.67
67279;DHT22;54193;53.746;10.058;2024-02-26T09:33:35;3.93;94.19
67279;DHT22;54193;53.746;10.058;2024-02-26T09:36:00;3.94;94.07
67279;DHT22;54193;53.746;10.058;2024-02-26T09:38:26;4.15;94.02
67279;DHT22;54193;53.746;10.058;2024-02-26T09:40:51;4.15;93.75
67279;DHT22;54193;53.746;10.058;2024-02-26T09:43:16;4.30;93.94
67279;DHT22;54193;53.746;10.058;2024-02-26T09:45:42;4.28;94.03
67279;DHT22;54193;53.746;10.058;2024-02-26T09:48:08;4.49;93.94
67279;DHT22;54193;53.746;10.058;2024-02-26T09:50:33;4.56;93.52
67279;DHT22;54193;53.746;10.058;2024-02-26T09:52:58;4.56;93.04
67279;DHT22;54193;53.746;10.058;2024-02-26T09:55:25;4.61;93.28
67279;DHT22;54193;53.746;10.058;2024-02-26T09:57:51;4.82;93.37
67279;DHT22;54193;53.746;10.058;2024-02-26T10:00:19;4.94;93.32
67279;DHT22;54193;53.746;10.058;2024-02-26T10:02:45;5.21;93.07
67279;DHT22;54193;53.746;10.058;2024-02-26T10:05:11;5.21;92.82
67279;DHT22;54193;53.746;10.058;2024-02-26T10:07:37;5.26;92.77
67279;DHT22;54193;53.746;10.058;2024-02-26T10:10:03;5.26;93.15
67279;DHT22;54193;53.746;10.058;2024-02-26T10:12:28;5.27;92.68
67279;DHT22;54193;53.746;10.058;2024-02-26T10:14:54;4.99;92.37
67279;DHT22;54193;53.746;10.058;2024-02-26T10:17:19;5.23;92.49
67279;DHT22;54193;53.746;10.058;2024-02-26T10:19:45;5.32;92.30
67279;DHT22;54193;53.746;10.058;2024-02-26T10:22:10;5.52;92.27
67279;DHT22;54193;53.746;10.058;2024-02-26T10:24:35;5.45;91.87
67279;DHT22;54193;53.746;10.058;2024-02-26T10:27:00;5.52;91.63
67279;DHT22;54193;53.746;10.058;2024-02-26T10:29:26;5.58;91.70
67279;DHT22;54193;53.746;10.058;2024-02-26T10:31:52;5.65;91.67
67279;DHT22;54193;53.746;10.058;2024-02-26T10:34:18;5.69;91.70
67279;DHT22;54193;53.746;10.058;2024-02-26T10:36:43;5.73;91.26
67279;DHT22;54193;53.746;10.058;2024-02-26T10:39:09;5.80;91.46
67279;DHT22;54193;53.746;10.058;2024-02-26T10:41:34;5.73;91.02
67279;DHT22;54193;53.746;10.058;2024-02-26T10:43:59;5.58;91.10
67279;DHT22;54193;53.746;10.058;2024-02-26T10:46:25;5.76;91.19
67279;DHT22;54193;53.746;10.058;2024-02-26T10:48:51;5.77;90.90
67279;DHT22;54193;53.746;10.058;2024-02-26T10:51:17;5.70;90.96
67279;DHT22;54193;53.746;10.058;2024-02-26T10:53:44;5.72;91.30
67279;DHT22;54193;53.746;10.058;2024-02-26T10:56:10;5.44;91.67
67279;DHT22;54193;53.746;10.058;2024-02-26T10:58:36;5.35;91.52
67279;DHT22;54193;53.746;10.058;2024-02-26T11:01:02;5.35;91.58
67279;DHT22;54193;53.746;10.058;2024-02-26T11:03:28;5.37;91.77
67279;DHT22;54193;53.746;10.058;2024-02-26T11:05:57;5.17;91.93
67279;DHT22;54193;53.746;10.058;2024-02-26T11:08:23;5.31;91.89
67279;DHT22;54193;53.746;10.058;2024-02-26T11:10:50;5.17;91.62
67279;DHT22;54193;53.746;10.058;2024-02-26T11:13:18;5.32;92.09
67279;DHT22;54193;53.746;10.058;2024-02-26T11:15:44;5.31;91.26
67279;DHT22;54193;53.746;10.058;2024-02-26T11:18:12;5.24;91.47
67279;DHT22;54193;53.746;10.058;2024-02-26T11:20:38;5.47;91.53
67279;DHT22;54193;53.746;10.058;2024-02-26T11:23:04;5.44;91.22
67279;DHT22;54193;53.746;10.058;2024-02-26T11:25:29;5.38;91.27
67279;DHT22;54193;53.746;10.058;2024-02-26T11:27:56;5.69;91.49
67279;DHT22;54193;53.746;10.058;2024-02-26T11:30:24;5.59;91.54
67279;DHT22;54193;53.746;10.058;2024-02-26T11:32:50;5.47;91.32
67279;DHT22;54193;53.746;10.058;2024-02-26T11:35:17;5.48;91.03
67279;DHT22;54193;53.746;10.058;2024-02-26T11:37:56;5.65;90.72
67279;DHT22;54193;53.746;10.058;2024-02-26T11:40:22;5.39;90.71
67279;DHT22;54193;53.746;10.058;2024-02-26T11:42:48;5.47;91.19
67279;DHT22;54193;53.746;10.058;2024-02-26T11:45:38;5.67;90.98
67279;DHT22;54193;53.746;10.058;2024-02-26T11:48:12;5.85;89.86
67279;DHT22;54193;53.746;10.058;2024-02-26T11:50:42;5.73;89.86
67279;DHT22;54193;53.746;10.058;2024-02-26T11:53:26;5.82;90.58
67279;DHT22;54193;53.746;10.058;2024-02-26T11:58:38;5.87;89.85
67279;DHT22;54193;53.746;10.058;2024-02-26T12:01:03;6.11;89.93
67279;DHT22;54193;53.746;10.058;2024-02-26T12:03:29;5.85;89.03
67279;DHT22;54193;53.746;10.058;2024-02-26T12:05:54;5.70;89.70
67279;DHT22;54193;53.746;10.058;2024-02-26T12:08:20;5.60;89.69
67279;DHT22;54193;53.746;10.058;2024-02-26T12:10:46;5.80;90.51
67279;DHT22;54193;53.746;10.058;2024-02-26T12:13:14;5.76;90.11
67279;DHT22;54193;53.746;10.058;2024-02-26T12:15:43;6.03;89.90
67279;DHT22;54193;53.746;10.058;2024-02-26T12:18:09;5.90;89.51
67279;DHT22;54193;53.746;10.058;2024-02-26T12:20:38;5.97;89.49
67279;DHT22;54193;53.746;10.058;2024-02-26T12:23:03;6.03;89.37
67279;DHT22;54193;53.746;10.058;2024-02-26T12:25:29;6.18;89.17
67279;DHT22;54193;53.746;10.058;2024-02-26T12:27:55;6.09;89.25
67279;DHT22;54193;53.746;10.058;2024-02-26T12:30:22;6.14;89.88
67279;DHT22;54193;53.746;10.058;2024-02-26T12:32:51;6.03;89.28
67279;DHT22;54193;53.746;10.058;2024-02-26T12:35:16;5.75;90.45
67279;DHT22;54193;53.746;10.058;2024-02-26T12:37:45;5.86;90.32
67279;DHT22;54193;53.746;10.058;2024-02-26T12:40:11;5.96;90.40
67279;DHT22;54193;53.746;10.058;2024-02-26T12:42:37;5.93;90.31
67279;DHT22;54193;53.746;10.058;2024-02-26T12:45:09;5.99;90.04
67279;DHT22;54193;53.746;10.058;2024-02-26T12:47:38;6.16;89.68
67279;DHT22;54193;53.746;10.058;2024-02-26T12:50:04;6.23;89.05
67279;DHT22;54193;53.746;10.058;2024-02-26T12:52:30;6.27;88.79
67279;DHT22;54193;53.746;10.058;2024-02-26T12:54:56;6.23;89.22
67279;DHT22;54193;53.746;10.058;2024-02-26T12:57:21;6.14;89.22
67279;DHT22;54193;53.746;10.058;2024-02-26T12:59:46;5.96;89.25
67279;DHT22;54193;53.746;10.058;2024-02-26T13:02:12;5.96;89.39
67279;DHT22;54193;53.746;10.058;2024-02-26T13:04:38;6.00;89.50
67279;DHT22;54193;53.746;10.058;2024-02-26T13:07:03;6.02;89.97
67279;DHT22;54193;53.746;10.058;2024-02-26T13:09:32;5.99;89.26
67279;DHT22;54193;53.746;10.058;2024-02-26T13:11:57;6.10;89.75
67279;DHT22;54193;53.746;10.058;2024-02-26T13:14:22;6.21;89.55
67279;DHT22;54193;53.746;10.058;2024-02-26T13:16:57;6.16;88.86
67279;DHT22;54193;53.746;10.058;2024-02-26T13:19:23;6.03;88.53
67279;DHT22;54193;53.746;10.058;2024-02-26T13:21:48;6.13;88.68
67279;DHT22;54193;53.746;10.058;2024-02-26T13:24:13;6.20;89.09
67279;DHT22;54193;53.746;10.058;2024-02-26T13:26:39;6.20;88.80
67279;DHT22;54193;53.746;10.058;2024-02-26T13:29:04;6.14;88.78
67279;DHT22;54193;53.746;10.058;2024-02-26T13:31:30;6.27;88.25
67279;DHT22;54193;53.746;10.058;2024-02-26T13:33:55;6.41;87.99
67279;DHT22;54193;53.746;10.058;2024-02-26T13:36:24;6.51;88.48
67279;DHT22;54193;53.746;10.058;2024-02-26T13:38:52;6.48;88.09
67279;DHT22;54193;53.746;10.058;2024-02-26T13:41:18;6.46;87.66
67279;DHT22;54193;53.746;10.058;2024-02-26T13:43:43;6.51;87.71
67279;DHT22;54193;53.746;10.058;2024-02-26T13:46:09;6.56;87.12
67279;DHT22;54193;53.746;10.058;2024-02-26T13:48:36;6.71;87.17
67279;DHT22;54193;53.746;10.058;2024-02-26T13:51:01;6.48;86.90
67279;DHT22;54193;53.746;10.058;2024-02-26T13:53:26;7.16;87.46
67279;DHT22;54193;53.746;10.058;2024-02-26T13:55:51;6.83;85.82
67279;DHT22;54193;53.746;10.058;2024-02-26T13:58:17;6.73;86.55
67279;DHT22;54193;53.746;10.058;2024-02-26T14:00:47;6.52;86.85
